Time;durP1;ratioP1;P1;durP2;ratioP2;P2;SDS_P1;SDS_P2;PMS_P1;PMS_P2;Temp;Humidity;BMP_temperature;BMP_pressure;BME280_temperature;BME280_humidity;BME280_pressure;Samples;Min_cycle;Max_cycle;Signal;HPM_P1;HPM_P2
2023/03/02 00:01:51;;;;;;;;;56.25;45.25;;;;;-147.17;100.00;12428.22;5021790;28;51056;-49
2023/03/02 00:04:22;;;;;;;;;50.75;42.50;;;;;-147.17;100.00;10931.25;5021401;28;50940;-49
2023/03/02 00:06:50;;;;;;;;;54.75;42.50;;;;;-147.17;100.00;11430.19;5020739;28;52105;-51
2023/03/02 00:09:16;;;;;;;;;37.00;32.00;;;;;-147.17;100.00;10681.81;5027457;28;50947;-47
2023/03/02 00:11:41;;;;;;;;;42.75;37.25;;;;;-147.17;100.00;10182.97;5028623;28;51290;-48
2023/03/02 00:14:07;;;;;;;;;47.50;43.25;;;;;-147.17;100.00;10182.97;5015385;28;51252;-48
2023/03/02 00:16:33;;;;;;;;;46.00;39.00;;;;;-147.17;100.00;9684.19;5014563;28;50935;-49
2023/03/02 00:18:58;;;;;;;;;46.50;41.75;;;;;-147.17;100.00;9684.19;5015252;28;51080;-48
2023/03/02 00:21:24;;;;;;;;;51.00;42.50;;;;;-147.17;100.00;9684.19;5015121;28;50983;-50
2023/03/02 00:23:50;;;;;;;;;44.50;40.25;;;;;-147.17;100.00;9434.84;5023663;28;50869;-50
2023/03/02 00:26:16;;;;;;;;;46.50;42.50;;;;;-147.17;100.00;9434.84;5021282;28;51232;-48
2023/03/02 00:28:42;;;;;;;;;39.25;33.00;;;;;-147.17;100.00;9185.47;5034632;28;51005;-49
2023/03/02 00:31:07;;;;;;;;;50.75;44.00;;;;;-147.17;100.00;9434.84;5034580;28;51152;-49
2023/03/02 00:33:33;;;;;;;;;40.25;37.00;;;;;-147.17;100.00;8936.16;5034817;28;51042;-49
2023/03/02 00:35:59;;;;;;;;;45.75;40.25;;;;;-147.17;100.00;8686.84;5024408;28;51915;-49
2023/03/02 00:38:24;;;;;;;;;46.00;40.75;;;;;-147.17;100.00;8437.53;5014630;28;51030;-50
2023/03/02 00:40:49;;;;;;;;;56.00;46.00;;;;;-147.17;100.00;8188.25;5014684;28;50967;-49
2023/03/02 00:43:16;;;;;;;;;45.75;42.50;;;;;-147.17;100.00;8437.53;5015029;28;51330;-48
2023/03/02 00:45:41;;;;;;;;;49.50;42.75;;;;;-147.17;100.00;8437.53;5013958;28;51869;-49
2023/03/02 00:48:07;;;;;;;;;56.25;43.00;;;;;-147.17;100.00;8188.25;5014636;28;51008;-49
2023/03/02 00:50:32;;;;;;;;;40.00;34.25;;;;;-147.17;100.00;8188.25;5014438;28;51206;-49
2023/03/02 00:52:57;;;;;;;;;52.00;44.25;;;;;-147.17;100.00;7939.00;5015463;28;51320;-49
2023/03/02 00:55:23;;;;;;;;;48.00;42.75;;;;;-147.17;100.00;7689.75;5017730;28;52886;-50
2023/03/02 00:57:55;;;;;;;;;50.50;45.00;;;;;-147.17;100.00;7440.50;5034498;28;50927;-48
2023/03/02 01:00:22;;;;;;;;;46.75;41.50;;;;;-147.17;100.00;7191.28;5028951;28;51039;-49
2023/03/02 01:02:48;;;;;;;;;39.75;37.00;;;;;-147.17;100.00;6443.75;5014275;28;51410;-50
2023/03/02 01:05:13;;;;;;;;;38.25;37.50;;;;;-147.17;100.00;6194.59;5014071;28;52277;-49
2023/03/02 01:07:39;;;;;;;;;47.25;41.50;;;;;-147.17;100.00;6443.75;5008784;28;51061;-51
2023/03/02 01:10:05;;;;;;;;;46.25;42.00;;;;;-147.17;100.00;6194.59;5015457;28;51284;-51
2023/03/02 01:12:31;;;;;;;;;49.50;42.75;;;;;-147.17;100.00;5945.44;5016120;28;51373;-49
2023/03/02 01:14:57;;;;;;;;;43.75;39.25;;;;;-147.17;100.00;5945.44;5016275;28;51832;-49
2023/03/02 01:17:24;;;;;;;;;49.50;42.00;;;;;-147.17;100.00;5447.22;5013802;28;51196;-48
2023/03/02 01:19:50;;;;;;;;;44.75;41.00;;;;;-147.17;100.00;5447.22;5014080;28;51027;-49
2023/03/02 01:22:16;;;;;;;;;56.75;46.50;;;;;-147.17;100.00;5198.13;5014609;28;50897;-50
2023/03/02 01:24:42;;;;;;;;;44.50;39.50;;;;;-147.17;100.00;4949.06;5015618;28;51999;-50
2023/03/02 01:27:08;;;;;;;;;50.50;41.00;;;;;-147.17;100.00;4700.00;5034173;28;50970;-49
2023/03/02 01:29:33;;;;;;;;;45.00;40.75;;;;;-147.17;100.00;4450.97;5033821;28;50918;-48
2023/03/02 01:31:58;;;;;;;;;51.00;43.00;;;;;-147.17;100.00;4201.94;5034033;28;51141;-49
2023/03/02 01:34:24;;;;;;;;;51.50;43.50;;;;;-147.17;100.00;3952.94;5027310;28;52814;-48
2023/03/02 01:36:49;;;;;;;;;43.25;40.00;;;;;-147.17;100.00;3454.97;5005981;28;50996;-49
2023/03/02 01:39:14;;;;;;;;;51.50;43.75;;;;;-147.17;100.00;3454.97;5028002;28;50944;-48
2023/03/02 01:41:44;;;;;;;;;53.25;44.25;;;;;-147.17;100.00;3454.97;5027957;28;51589;-50
2023/03/02 01:44:34;;;;;;;;;57.25;42.25;;;;;-147.17;100.00;3206.00;5033474;28;51050;-48
2023/03/02 01:47:02;;;;;;;;;49.50;42.25;;;;;-147.17;100.00;2957.06;5033423;28;51143;-48
2023/03/02 01:49:27;;;;;;;;;54.00;43.00;;;;;-147.17;100.00;2957.06;5015701;28;51169;-49
2023/03/02 01:51:53;;;;;;;;;40.50;39.00;;;;;-147.17;100.00;3454.97;5027272;28;51301;-49
2023/03/02 01:54:21;;;;;;;;;53.25;41.25;;;;;-147.17;100.00;2708.13;5017708;28;51916;-48
2023/03/02 01:56:50;;;;;;;;;43.25;39.50;;;;;-147.17;100.00;2708.13;5013450;28;50966;-48
2023/03/02 01:59:18;;;;;;;;;46.00;41.00;;;;;-147.17;100.00;2708.13;5014401;28;51285;-49
2023/03/02 02:01:49;;;;;;;;;42.50;38.50;;;;;-147.17;100.00;2708.13;5013714;28;51388;-50
2023/03/02 02:04:15;;;;;;;;;47.25;41.75;;;;;-147.17;100.00;2459.22;5013167;28;52719;-50
2023/03/02 02:06:46;;;;;;;;;49.50;43.00;;;;;-147.17;100.00;2210.31;5013674;28;51089;-51
2023/03/02 02:09:15;;;;;;;;;46.25;42.00;;;;;-147.17;100.00;1712.56;5019474;28;50998;-48
2023/03/02 02:11:42;;;;;;;;;47.75;41.25;;;;;-147.17;100.00;1961.44;5021336;28;51380;-49
2023/03/02 02:14:07;;;;;;;;;39.25;37.25;;;;;-147.17;100.00;1463.72;5013228;28;51730;-49
2023/03/02 02:16:33;;;;;;;;;44.50;41.50;;;;;-147.17;100.00;966.09;5013197;28;51020;-51
2023/03/02 02:19:00;;;;;;;;;43.25;39.75;;;;;-147.17;100.00;717.28;5013346;28;50995;-55
2023/03/02 02:21:27;;;;;;;;;49.25;43.50;;;;;-147.17;100.00;1214.91;5013062;28;51532;-50
2023/03/02 02:24:05;;;;;;;;;45.75;42.00;;;;;-147.17;100.00;717.28;5025973;28;51815;-49
2023/03/02 02:26:40;;;;;;;;;44.00;40.00;;;;;-147.17;100.00;468.50;5033240;28;51133;-49
2023/03/02 02:29:21;;;;;;;;;37.75;33.50;;;;;-147.17;100.00;468.50;5032904;28;51148;-47
2023/03/02 02:32:05;;;;;;;;;50.25;42.75;;;;;-147.17;100.00;-29.03;5033004;28;51185;-49
2023/03/02 02:34:33;;;;;;;;;51.25;42.00;;;;;-147.17;100.00;-29.03;5032976;28;51002;-50
2023/03/02 02:37:06;;;;;;;;;48.50;40.25;;;;;-147.17;100.00;-29.03;5031927;28;50907;-50
2023/03/02 02:39:36;;;;;;;;;45.00;41.25;;;;;-147.17;100.00;-29.03;5032975;28;51093;-49
2023/03/02 02:42:06;;;;;;;;;48.25;42.75;;;;;-147.17;100.00;-277.75;5033016;28;51268;-47
2023/03/02 02:44:32;;;;;;;;;50.25;43.00;;;;;-147.17;100.00;-775.19;5032869;28;51935;-47
2023/03/02 02:46:57;;;;;;;;;47.00;42.75;;;;;-147.17;100.00;-1272.53;5032458;28;51395;-49
2023/03/02 02:49:34;;;;;;;;;46.25;39.75;;;;;-147.17;100.00;-1272.53;5004488;28;50979;-48
2023/03/02 02:52:00;;;;;;;;;44.50;40.00;;;;;-147.17;100.00;-1769.84;5020099;28;51212;-50
2023/03/02 02:54:28;;;;;;;;;51.50;45.75;;;;;-147.17;100.00;-1769.84;5012871;28;52257;-50
2023/03/02 02:56:55;;;;;;;;;44.75;40.25;;;;;-147.17;100.00;-1521.19;5012625;28;51046;-50
2023/03/02 02:59:32;;;;;;;;;53.00;43.25;;;;;-147.17;100.00;-1769.84;5019271;28;50899;-48
2023/03/02 03:01:58;;;;;;;;;47.25;39.75;;;;;-147.17;100.00;-1769.84;5012605;28;50995;-50
2023/03/02 03:04:29;;;;;;;;;52.25;44.25;;;;;-147.17;100.00;-2018.47;5012327;28;51893;-48
2023/03/02 03:06:58;;;;;;;;;43.25;39.00;;;;;-147.17;100.00;-2267.06;5011872;28;51271;-49
2023/03/02 03:09:25;;;;;;;;;46.50;42.00;;;;;-147.17;100.00;-2267.06;5012680;28;50937;-49
2023/03/02 03:11:53;;;;;;;;;45.00;41.75;;;;;-147.17;100.00;-2267.06;5021721;28;51377;-48
2023/03/02 03:14:28;;;;;;;;;37.25;32.50;;;;;-147.17;100.00;-2515.66;5027615;28;51998;-50
2023/03/02 03:16:53;;;;;;;;;45.00;40.00;;;;;-147.17;100.00;-2764.22;5007417;28;51170;-49
2023/03/02 03:19:23;;;;;;;;;53.50;44.25;;;;;-147.17;100.00;-3012.78;5025921;28;51111;-48
2023/03/02 03:21:52;;;;;;;;;48.25;41.50;;;;;-147.17;100.00;-3261.34;5015438;28;51044;-47
2023/03/02 03:24:18;;;;;;;;;51.00;43.25;;;;;-147.17;100.00;-3261.34;5012045;28;51265;-50
2023/03/02 03:26:44;;;;;;;;;52.00;43.75;;;;;-147.17;100.00;-3261.34;5012228;28;51063;-49
2023/03/02 03:29:11;;;;;;;;;55.50;42.75;;;;;-147.17;100.00;-3509.84;5012519;28;50971;-50
2023/03/02 03:31:36;;;;;;;;;46.00;43.00;;;;;-147.17;100.00;-3509.84;5012185;28;51117;-48
2023/03/02 03:34:02;;;;;;;;;45.25;41.25;;;;;-147.17;100.00;-4006.88;5012027;28;51021;-49
2023/03/02 03:36:29;;;;;;;;;58.25;44.25;;;;;-147.17;100.00;-4255.34;5006160;28;51291;-49
2023/03/02 03:38:56;;;;;;;;;54.00;46.00;;;;;-147.17;100.00;-4006.88;5021429;28;51325;-48
2023/03/02 03:41:22;;;;;;;;;49.00;43.50;;;;;-147.17;100.00;-4255.34;5011882;28;51396;-49
2023/03/02 03:43:47;;;;;;;;;49.25;43.50;;;;;-147.17;100.00;-4006.88;5012231;28;51806;-50
2023/03/02 03:46:13;;;;;;;;;43.00;40.50;;;;;-147.17;100.00;-4006.88;5011606;28;50985;-50
2023/03/02 03:48:38;;;;;;;;;47.50;40.25;;;;;-147.17;100.00;-4006.88;5012297;28;51059;-50
2023/03/02 03:51:04;;;;;;;;;44.00;39.25;;;;;-147.17;100.00;-4006.88;5015212;28;51412;-50
2023/03/02 03:53:30;;;;;;;;;49.25;42.75;;;;;-147.17;100.00;-4006.88;5013859;28;51825;-49
2023/03/02 03:55:56;;;;;;;;;40.25;37.75;;;;;-147.17;100.00;-4503.81;5011804;28;51072;-49
2023/03/02 03:58:22;;;;;;;;;50.25;42.00;;;;;-147.17;100.00;-4752.25;5012094;28;51081;-50
2023/03/02 04:00:48;;;;;;;;;50.75;43.50;;;;;-147.17;100.00;-4752.25;5014441;28;51228;-48
2023/03/02 04:03:14;;;;;;;;;49.75;42.75;;;;;-147.17;100.00;-5000.69;5015075;28;52800;-48
2023/03/02 04:05:40;;;;;;;;;44.25;41.75;;;;;-147.17;100.00;-5000.69;5015007;28;51280;-46
2023/03/02 04:08:06;;;;;;;;;48.75;43.25;;;;;-147.17;100.00;-5249.09;5029133;28;51044;-49
2023/03/02 04:10:32;;;;;;;;;43.25;37.00;;;;;-147.17;100.00;-5000.69;5035325;28;51137;-49
2023/03/02 04:12:58;;;;;;;;;52.75;45.75;;;;;-147.17;100.00;-5249.09;5019676;28;51078;-49
2023/03/02 04:15:23;;;;;;;;;50.00;45.00;;;;;-147.17;100.00;-5249.09;5014682;28;51111;-48
2023/03/02 04:17:49;;;;;;;;;51.50;43.50;;;;;-147.17;100.00;-5497.50;5015047;28;51027;-47
2023/03/02 04:20:16;;;;;;;;;46.75;43.25;;;;;-147.17;100.00;-5994.25;5015284;28;51415;-47
2023/03/02 04:22:48;;;;;;;;;54.00;44.75;;;;;-147.17;100.00;-5745.88;5022442;28;51982;-49
2023/03/02 04:25:18;;;;;;;;;47.50;41.25;;;;;-147.17;100.00;-5994.25;5034504;28;51095;-49
2023/03/02 04:27:44;;;;;;;;;50.00;44.75;;;;;-147.17;100.00;-6242.59;5034711;28;51066;-48
2023/03/02 04:30:10;;;;;;;;;52.50;45.25;;;;;-147.17;100.00;-6242.59;5029629;28;51113;-47
2023/03/02 04:32:35;;;;;;;;;46.25;41.00;;;;;-147.17;100.00;-6490.94;5034067;28;51755;-48
2023/03/02 04:35:00;;;;;;;;;50.75;45.25;;;;;-147.17;100.00;-6490.94;5034405;28;51125;-47
2023/03/02 04:37:26;;;;;;;;;56.75;45.25;;;;;-147.17;100.00;-6739.25;5026858;28;51692;-47
2023/03/02 04:39:52;;;;;;;;;50.50;43.25;;;;;-147.17;100.00;-6490.94;5026142;28;51105;-50
2023/03/02 04:42:18;;;;;;;;;46.00;42.50;;;;;-147.17;100.00;-6490.94;5033985;28;51893;-48
2023/03/02 04:44:44;;;;;;;;;56.25;46.25;;;;;-147.17;100.00;-6490.94;5034290;28;51188;-48
2023/03/02 04:47:09;;;;;;;;;54.50;45.00;;;;;-147.17;100.00;-6490.94;5033830;28;51098;-49
2023/03/02 04:49:35;;;;;;;;;46.75;42.25;;;;;-147.17;100.00;-6987.56;5034548;28;51084;-50
2023/03/02 04:52:01;;;;;;;;;49.50;45.25;;;;;-147.17;100.00;-6739.25;5026881;28;51944;-50
2023/03/02 04:54:27;;;;;;;;;49.75;43.50;;;;;-147.17;100.00;-6490.94;5020693;28;51042;-50
2023/03/02 04:56:53;;;;;;;;;62.75;49.75;;;;;-147.17;100.00;-6987.56;5014858;28;50969;-51
2023/03/02 04:59:23;;;;;;;;;55.25;47.00;;;;;-147.17;100.00;-7235.84;5020564;28;52135;-50
2023/03/02 05:01:49;;;;;;;;;61.75;49.25;;;;;-147.17;100.00;-7235.84;5013836;28;52647;-50
2023/03/02 05:04:14;;;;;;;;;55.25;47.25;;;;;-147.17;100.00;-7235.84;5014275;28;51149;-52
2023/03/02 05:06:40;;;;;;;;;49.00;43.25;;;;;-147.17;100.00;-7484.09;5003015;28;50996;-49
2023/03/02 05:09:06;;;;;;;;;51.25;41.75;;;;;-147.17;100.00;-7235.84;5021452;28;50932;-48
2023/03/02 05:11:32;;;;;;;;;57.50;48.50;;;;;-147.17;100.00;-7484.09;5019900;28;51177;-50
2023/03/02 05:14:00;;;;;;;;;57.50;47.00;;;;;-147.17;100.00;-7484.09;5025936;28;51153;-50
2023/03/02 05:16:30;;;;;;;;;54.50;44.50;;;;;-147.17;100.00;-7732.34;5033941;28;51131;-49
2023/03/02 05:18:58;;;;;;;;;55.75;47.50;;;;;-147.17;100.00;-8228.81;5033768;28;51365;-49
2023/03/02 05:21:24;;;;;;;;;52.50;42.75;;;;;-147.17;100.00;-8228.81;5027402;28;51805;-49
2023/03/02 05:23:50;;;;;;;;;41.50;40.75;;;;;-147.17;100.00;-8477.03;5026760;28;50901;-49
2023/03/02 05:26:16;;;;;;;;;46.25;43.50;;;;;-147.17;100.00;-8725.22;5033098;28;51162;-50
2023/03/02 05:28:42;;;;;;;;;50.75;44.75;;;;;-147.17;100.00;-8973.38;5026121;28;51043;-49
2023/03/02 05:31:07;;;;;;;;;43.25;39.75;;;;;-147.17;100.00;-8725.22;5032269;28;51779;-48
2023/03/02 05:33:33;;;;;;;;;55.00;46.50;;;;;-147.17;100.00;-8973.38;5033546;28;51078;-48
2023/03/02 05:35:59;;;;;;;;;52.25;44.75;;;;;-147.17;100.00;-8725.22;5033411;28;51156;-49
2023/03/02 05:38:26;;;;;;;;;61.75;47.00;;;;;-147.17;100.00;-8477.03;5033892;28;51114;-48
2023/03/02 05:40:51;;;;;;;;;52.75;45.25;;;;;-147.17;100.00;-8477.03;5020122;28;52085;-50
2023/03/02 05:43:20;;;;;;;;;51.75;44.75;;;;;-147.17;100.00;-8725.22;5013597;28;50900;-49
2023/03/02 05:45:45;;;;;;;;;58.25;46.75;;;;;-147.17;100.00;-8973.38;5013114;28;51099;-47
2023/03/02 05:48:12;;;;;;;;;57.00;46.00;;;;;-147.17;100.00;-8973.38;5024563;28;51168;-48
2023/03/02 05:50:37;;;;;;;;;57.50;46.25;;;;;-147.17;100.00;-8973.38;5015761;28;50990;-49
2023/03/02 05:53:03;;;;;;;;;55.25;44.00;;;;;-147.17;100.00;-8725.22;5016743;28;51084;-49
2023/03/02 05:55:29;;;;;;;;;52.50;46.00;;;;;-147.17;100.00;-8725.22;5012894;28;53252;-49
2023/03/02 05:57:54;;;;;;;;;56.00;47.00;;;;;-147.17;100.00;-8725.22;5013636;28;51302;-49
2023/03/02 06:00:20;;;;;;;;;62.50;49.25;;;;;-147.17;100.00;-8725.22;5025362;28;51017;-48
2023/03/02 06:02:46;;;;;;;;;61.25;49.25;;;;;-147.17;100.00;-8973.38;5013049;28;51014;-49
2023/03/02 06:05:15;;;;;;;;;45.00;42.25;;;;;-147.17;100.00;-8973.38;5012821;28;51246;-48
2023/03/02 06:07:41;;;;;;;;;56.00;48.25;;;;;-147.17;100.00;-8973.38;5013414;28;51176;-48
2023/03/02 06:10:09;;;;;;;;;54.00;47.25;;;;;-147.17;100.00;-9221.53;5012261;28;51967;-49
2023/03/02 06:12:35;;;;;;;;;58.25;47.25;;;;;-147.17;100.00;-9221.53;4983537;28;51025;-48
2023/03/02 06:15:02;;;;;;;;;52.25;44.00;;;;;-147.17;100.00;-9221.53;4996472;28;50870;-49
2023/03/02 06:17:27;;;;;;;;;61.25;49.50;;;;;-147.17;100.00;-9469.69;5032898;28;50899;-49
2023/03/02 06:19:53;;;;;;;;;56.25;46.50;;;;;-147.17;100.00;-9965.91;5032095;28;63384;-50
2023/03/02 06:22:18;;;;;;;;;62.75;48.25;;;;;-147.17;100.00;-9717.81;5032458;28;50943;-50
2023/03/02 06:24:43;;;;;;;;;58.25;47.75;;;;;-147.17;100.00;-9965.91;5032188;28;50919;-48
2023/03/02 06:27:09;;;;;;;;;49.50;45.00;;;;;-147.17;100.00;-9965.91;5015948;28;51196;-51
2023/03/02 06:29:34;;;;;;;;;60.50;51.25;;;;;-147.17;100.00;-9717.81;5030249;28;51391;-49
2023/03/02 06:31:59;;;;;;;;;56.00;48.25;;;;;-147.17;100.00;-9965.91;5032058;28;51522;-49
2023/03/02 06:34:25;;;;;;;;;51.75;46.25;;;;;-147.17;100.00;-9965.91;4996602;28;51363;-49
2023/03/02 06:36:50;;;;;;;;;52.75;46.50;;;;;-147.17;100.00;-9965.91;5024483;28;51051;-50
2023/03/02 06:39:16;;;;;;;;;53.50;45.50;;;;;-147.17;100.00;-10214.00;4996772;28;51651;-49
2023/03/02 06:41:45;;;;;;;;;57.00;45.50;;;;;-147.17;100.00;-10214.00;4999759;28;51085;-49
2023/03/02 06:44:11;;;;;;;;;58.25;47.50;;;;;-147.17;100.00;-10214.00;5018780;28;51152;-49
2023/03/02 06:46:38;;;;;;;;;57.25;46.75;;;;;-147.17;100.00;-10462.09;5020499;28;51172;-51
2023/03/02 06:49:03;;;;;;;;;55.00;46.25;;;;;-147.17;100.00;-10710.16;5028980;28;53050;-50
2023/03/02 06:51:29;;;;;;;;;56.75;47.25;;;;;-147.17;100.00;-10462.09;5010793;28;51260;-49
2023/03/02 06:53:54;;;;;;;;;53.50;46.00;;;;;-147.17;100.00;-10710.16;5025235;28;50916;-48
2023/03/02 06:56:20;;;;;;;;;55.75;47.25;;;;;-147.17;100.00;-10710.16;5012809;28;51117;-49
2023/03/02 06:58:46;;;;;;;;;65.75;51.00;;;;;-147.17;100.00;-10710.16;5013475;28;51837;-49
2023/03/02 07:01:11;;;;;;;;;57.25;47.75;;;;;-147.17;100.00;-10958.19;5017017;28;52892;-50
2023/03/02 07:03:36;;;;;;;;;60.75;49.75;;;;;-147.17;100.00;-10958.19;5023857;28;51082;-49
2023/03/02 07:06:02;;;;;;;;;57.50;46.25;;;;;-147.17;100.00;-10710.16;5020821;28;51151;-49
2023/03/02 07:08:28;;;;;;;;;61.75;49.00;;;;;-147.17;100.00;-10710.16;5016144;28;53380;-50
2023/03/02 07:10:53;;;;;;;;;61.00;48.00;;;;;-147.17;100.00;-10710.16;5011660;28;51206;-49
2023/03/02 07:13:19;;;;;;;;;56.50;45.75;;;;;-147.17;100.00;-10710.16;5017634;28;51740;-49
2023/03/02 07:15:44;;;;;;;;;61.25;49.00;;;;;-147.17;100.00;-10710.16;5032074;28;51053;-50
2023/03/02 07:18:09;;;;;;;;;60.25;48.00;;;;;-147.17;100.00;-11206.22;5031913;28;51900;-50
2023/03/02 07:20:35;;;;;;;;;51.75;44.25;;;;;-147.17;100.00;-11206.22;5021238;28;50971;-49
2023/03/02 07:23:00;;;;;;;;;65.50;53.00;;;;;-147.17;100.00;-10958.19;5029435;28;50926;-49
2023/03/02 07:25:26;;;;;;;;;50.50;43.25;;;;;-147.17;100.00;-10710.16;5027666;28;51285;-49
2023/03/02 07:27:51;;;;;;;;;53.50;46.25;;;;;-147.17;100.00;-10958.19;5029247;28;60930;-49
2023/03/02 07:30:20;;;;;;;;;59.25;48.75;;;;;-147.17;100.00;-10958.19;5003131;28;51007;-49
2023/03/02 07:32:46;;;;;;;;;60.00;48.00;;;;;-147.17;100.00;-10958.19;5030264;28;51129;-50
2023/03/02 07:35:11;;;;;;;;;55.00;47.75;;;;;-147.17;100.00;-10958.19;5032495;28;51163;-49
2023/03/02 07:37:37;;;;;;;;;58.50;49.00;;;;;-147.17;100.00;-10710.16;5035411;28;51015;-49
2023/03/02 07:40:03;;;;;;;;;62.50;51.75;;;;;-147.17;100.00;-10710.16;5035902;28;50997;-51
2023/03/02 07:42:28;;;;;;;;;56.25;48.50;;;;;-147.17;100.00;-10462.09;5035477;28;51192;-48
2023/03/02 07:44:54;;;;;;;;;55.50;44.75;;;;;-147.17;100.00;-10214.00;5035511;28;50963;-50
2023/03/02 07:47:20;;;;;;;;;62.00;49.00;;;;;-147.17;100.00;-10462.09;5034335;28;51265;-50
2023/03/02 07:49:45;;;;;;;;;10.00;9.00;;;;;-147.17;100.00;-10214.00;5033241;28;51034;-48
2023/03/02 07:52:10;;;;;;;;;52.50;45.75;;;;;-147.17;100.00;-9965.91;5027308;28;50951;-47
2023/03/02 07:54:36;;;;;;;;;60.00;49.75;;;;;-147.17;100.00;-11702.25;5015669;28;51309;-48
2023/03/02 07:57:02;;;;;;;;;57.25;48.50;;;;;-147.17;100.00;-12694.06;4980459;28;54140;-49
2023/03/02 07:59:28;;;;;;;;;44.50;41.25;;;;;-147.17;100.00;-11702.25;4992111;28;51093;-51
2023/03/02 08:01:54;;;;;;;;;55.50;47.50;;;;;-147.17;100.00;-8973.38;5020446;28;51431;-50
2023/03/02 08:04:19;;;;;;;;;54.75;47.25;;;;;-147.17;100.00;-5745.88;5015141;28;51113;-50
2023/03/02 08:06:45;;;;;;;;;57.00;46.00;;;;;-147.17;100.00;-1272.53;5014758;28;50930;-48
2023/03/02 08:09:10;;;;;;;;;58.75;49.50;;;;;-147.17;100.00;2459.22;5014991;28;51229;-47
2023/03/02 08:11:35;;;;;;;;;63.25;50.25;;;;;-147.17;100.00;6194.59;5027734;28;51114;-50
2023/03/02 08:14:02;;;;;;;;;56.25;47.25;;;;;-147.17;100.00;10681.81;5015277;28;50898;-51
2023/03/02 08:16:28;;;;;;;;;60.50;49.50;;;;;-147.17;100.00;15174.22;5014595;28;52201;-48
2023/03/02 08:18:53;;;;;;;;;54.75;44.25;;;;;-147.17;100.00;17672.25;5017605;28;51161;-48
2023/03/02 08:21:21;;;;;;;;;56.50;47.00;;;;;-147.17;100.00;19921.84;5014866;28;51077;-56
2023/03/02 08:23:48;;;;;;;;;57.50;46.50;;;;;-147.17;100.00;24925.63;5014429;28;50911;-49
2023/03/02 08:26:13;;;;;;;;;66.00;49.75;;;;;-147.17;100.00;27308.59;5014336;28;51714;-48
2023/03/02 08:28:40;;;;;;;;;60.75;48.50;;;;;-147.17;100.00;30576.28;5014517;28;51483;-49
2023/03/02 08:31:07;;;;;;;;;54.50;45.25;;;;;-147.17;100.00;30119.94;5014354;28;51076;-49
2023/03/02 08:33:33;;;;;;;;;52.50;44.50;;;;;-147.17;100.00;32635.38;5016174;28;51124;-48
2023/03/02 08:36:05;;;;;;;;;58.75;48.75;;;;;-147.17;100.00;37351.34;5014957;28;51275;-50
2023/03/02 08:38:31;;;;;;;;;58.50;47.50;;;;;-147.17;100.00;39396.34;5017656;28;51196;-50
2023/03/02 08:40:57;;;;;;;;;59.00;49.00;;;;;-147.17;100.00;39353.16;5018881;28;51236;-52
2023/03/02 08:43:24;;;;;;;;;58.75;49.00;;;;;-147.17;100.00;40207.19;5017171;28;53474;-51
2023/03/02 08:45:51;;;;;;;;;60.25;48.25;;;;;-147.17;100.00;41291.19;5017121;28;51177;-50
2023/03/02 08:48:16;;;;;;;;;55.75;45.75;;;;;-147.17;100.00;41448.31;5017913;28;51195;-51
2023/03/02 08:50:42;;;;;;;;;49.75;40.25;;;;;-147.17;100.00;42450.16;5015153;28;51576;-50
2023/03/02 08:53:07;;;;;;;;;57.25;46.75;;;;;-147.17;100.00;42705.56;5018513;28;51442;-51
2023/03/02 08:55:36;;;;;;;;;55.00;45.50;;;;;-147.17;100.00;42603.38;5017509;28;56796;-50
2023/03/02 08:58:03;;;;;;;;;56.00;46.25;;;;;-147.17;100.00;43479.75;5018643;28;51271;-49
2023/03/02 09:00:28;;;;;;;;;60.50;49.50;;;;;-147.17;100.00;43515.13;5017092;28;51257;-49
2023/03/02 09:02:53;;;;;;;;;54.25;45.50;;;;;-147.17;100.00;43638.91;5017377;28;51372;-50
2023/03/02 09:05:19;;;;;;;;;57.25;46.75;;;;;-147.17;100.00;44022.16;5017081;28;51761;-50
2023/03/02 09:07:44;;;;;;;;;62.00;49.25;;;;;-147.17;100.00;44320.91;5017649;28;51125;-50
2023/03/02 09:10:10;;;;;;;;;55.50;46.50;;;;;-147.17;100.00;44427.03;5018560;28;51568;-51
2023/03/02 09:12:35;;;;;;;;;55.00;46.25;;;;;-147.17;100.00;44617.72;5017839;28;51273;-51
2023/03/02 09:15:00;;;;;;;;;60.25;48.75;;;;;-147.17;100.00;45067.88;5017128;28;52664;-57
2023/03/02 09:17:26;;;;;;;;;57.00;47.75;;;;;-147.17;100.00;45262.50;5017371;28;51064;-49
2023/03/02 09:19:51;;;;;;;;;56.50;47.25;;;;;-147.17;100.00;45461.09;5015428;28;51320;-50
2023/03/02 09:22:17;;;;;;;;;57.50;47.25;;;;;-147.17;100.00;45752.09;5006652;28;51454;-50
2023/03/02 09:24:42;;;;;;;;;55.50;44.50;;;;;-147.17;100.00;46638.97;5016841;28;51908;-50
2023/03/02 09:27:08;;;;;;;;;58.25;48.50;;;;;-147.17;100.00;46890.72;5016968;28;51123;-49
2023/03/02 09:29:33;;;;;;;;;61.00;49.25;;;;;-147.17;100.00;46937.91;5017595;28;51194;-50
2023/03/02 09:31:59;;;;;;;;;57.50;46.25;;;;;-147.17;100.00;46678.31;5017948;28;51372;-50
2023/03/02 09:34:24;;;;;;;;;52.75;44.25;;;;;-147.17;100.00;46253.50;5016779;28;51486;-52
2023/03/02 09:36:49;;;;;;;;;56.75;47.25;;;;;-147.17;100.00;45862.19;5017533;28;51215;-51
2023/03/02 09:39:15;;;;;;;;;57.50;47.00;;;;;-147.17;100.00;45435.53;5017374;28;51058;-48
2023/03/02 09:42:04;;;;;;;;;53.25;44.75;;;;;-147.17;100.00;45174.03;5017484;28;51288;-50
2023/03/02 09:44:59;;;;;;;;;55.50;46.00;;;;;-147.17;100.00;45329.34;5016872;28;51908;-49
2023/03/02 09:47:37;;;;;;;;;56.25;45.25;;;;;-147.17;100.00;45449.28;5016915;28;51228;-48
2023/03/02 09:50:25;;;;;;;;;55.75;45.50;;;;;-147.17;100.00;45427.66;5017516;28;51308;-49
2023/03/02 09:53:32;;;;;;;;;57.25;47.00;;;;;-147.17;100.00;45551.53;5016749;28;51401;-51
2023/03/02 09:56:01;;;;;;;;;57.00;46.75;;;;;-147.17;100.00;45331.31;4976878;28;51882;-49
2023/03/02 09:58:39;;;;;;;;;54.50;45.50;;;;;-147.17;100.00;45150.44;5015634;28;51321;-49
2023/03/02 10:01:19;;;;;;;;;56.75;46.25;;;;;-147.17;100.00;45134.72;5016680;28;51096;-49
2023/03/02 10:03:56;;;;;;;;;58.00;46.25;;;;;-147.17;100.00;44957.78;5006803;28;51114;-50
2023/03/02 10:06:21;;;;;;;;;54.50;44.25;;;;;-147.17;100.00;45248.75;5015846;28;51701;-50
2023/03/02 10:08:49;;;;;;;;;60.00;47.00;;;;;-147.17;100.00;45504.34;5016724;28;51306;-50
2023/03/02 10:11:26;;;;;;;;;58.00;47.25;;;;;-147.17;100.00;45689.16;4998655;28;51469;-50
2023/03/02 10:14:02;;;;;;;;;55.75;46.50;;;;;-147.17;100.00;45374.59;5017006;28;53046;-51
2023/03/02 10:16:47;;;;;;;;;55.00;46.00;;;;;-147.17;100.00;45229.09;5016174;28;52461;-48
2023/03/02 10:19:17;;;;;;;;;58.75;48.00;;;;;-147.17;100.00;45020.69;5017097;28;53582;-51
2023/03/02 10:21:50;;;;;;;;;52.25;43.25;;;;;-147.17;100.00;45042.31;5014230;28;51240;-51
2023/03/02 10:24:30;;;;;;;;;57.50;47.00;;;;;-147.17;100.00;44881.13;5005344;28;51587;-49
2023/03/02 10:27:14;;;;;;;;;57.00;46.50;;;;;-147.17;100.00;44576.44;5016453;28;52719;-51
2023/03/02 10:29:40;;;;;;;;;53.25;45.00;;;;;-147.17;100.00;44548.91;5015364;28;51198;-50
2023/03/02 10:32:20;;;;;;;;;58.25;47.00;;;;;-147.17;100.00;44517.47;5016488;28;51042;-52
2023/03/02 10:34:47;;;;;;;;;56.25;47.00;;;;;-147.17;100.00;44969.59;5015477;28;51186;-51
2023/03/02 10:37:29;;;;;;;;;57.00;46.25;;;;;-147.17;100.00;44983.34;5015224;28;51602;-51
2023/03/02 10:39:55;;;;;;;;;54.25;44.75;;;;;-147.17;100.00;44731.72;4997982;28;51229;-51
2023/03/02 10:42:36;;;;;;;;;57.25;46.25;;;;;-147.17;100.00;44356.28;5016873;28;51538;-49
2023/03/02 10:45:16;;;;;;;;;56.00;46.00;;;;;-147.17;100.00;44415.25;5016305;28;51165;-52
2023/03/02 10:47:41;;;;;;;;;56.25;46.50;;;;;-147.17;100.00;44592.16;5015504;28;52058;-51
2023/03/02 10:50:20;;;;;;;;;56.50;46.50;;;;;-147.17;100.00;44517.47;5016547;28;60874;-49
2023/03/02 10:52:49;;;;;;;;;52.00;42.50;;;;;-147.17;100.00;44474.22;5016211;28;51260;-51
2023/03/02 10:55:15;;;;;;;;;52.75;43.00;;;;;-147.17;100.00;44289.47;5016745;28;51331;-51
2023/03/02 10:57:55;;;;;;;;;52.25;44.00;;;;;-147.17;100.00;44189.22;5015110;28;51266;-50